createdAt,value
2023-01-01T00:01:30.200Z,8.35
2023-01-01T00:04:00.089Z,8.35
2023-01-01T00:06:29.352Z,8.35
2023-01-01T00:09:11.035Z,8.30
2023-01-01T00:27:21.149Z,8.10
2023-01-01T00:29:50.318Z,8.10
2023-01-01T00:32:22.631Z,8.11
2023-01-01T00:34:50.992Z,8.10
2023-01-01T00:37:19.425Z,8.10
2023-01-01T00:39:47.385Z,8.08
2023-01-01T00:42:15.259Z,8.02
2023-01-01T00:44:43.048Z,8.03
2023-01-01T00:47:12.309Z,8.05
2023-01-01T00:50:12.240Z,8.07
2023-01-01T00:56:37.380Z,8.10
2023-01-01T00:59:05.229Z,8.08
2023-01-01T01:01:34.680Z,8.07
2023-01-01T01:04:05.057Z,8.06
2023-01-01T01:06:33.007Z,8.07
2023-01-01T01:09:00.797Z,8.03
2023-01-01T01:11:28.631Z,8.01
2023-01-01T01:13:57.973Z,8.02
2023-01-01T01:16:27.439Z,7.96
2023-01-01T01:18:57.649Z,7.92
2023-01-01T01:21:27.616Z,7.74
2023-01-01T01:23:56.065Z,7.71
2023-01-01T01:26:24.836Z,7.75
2023-01-01T01:28:53.141Z,7.75
2023-01-01T01:31:22.567Z,7.79
2023-01-01T01:33:50.865Z,7.80
2023-01-01T01:36:19.768Z,7.82
2023-01-01T01:43:30.717Z,7.77
2023-01-01T01:46:06.424Z,7.74
2023-01-01T01:48:52.618Z,7.71
2023-01-01T01:51:28.147Z,7.70
2023-01-01T01:54:08.400Z,7.69
2023-01-01T01:56:50.299Z,7.68
2023-01-01T01:59:20.594Z,7.68
2023-01-01T02:01:53.258Z,7.69
2023-01-01T02:06:12.145Z,7.67
2023-01-01T02:13:38.302Z,7.61
2023-01-01T02:27:13.011Z,7.47
2023-01-01T02:29:47.793Z,7.40
2023-01-01T02:32:19.561Z,7.31
2023-01-01T02:34:51.369Z,7.20
2023-01-01T02:37:20.228Z,7.14
2023-01-01T02:39:52.859Z,7.11
2023-01-01T02:42:21.058Z,7.12
2023-01-01T02:44:52.302Z,7.12
2023-01-01T02:47:21.124Z,7.10
2023-01-01T02:49:57.569Z,7.05
2023-01-01T02:52:47.078Z,7.06
2023-01-01T02:55:24.024Z,7.06
2023-01-01T02:57:53.965Z,7.03
2023-01-01T03:00:28.439Z,6.90
2023-01-01T03:03:16.391Z,6.86
2023-01-01T03:06:07.744Z,6.80
2023-01-01T03:08:42.182Z,6.75
2023-01-01T03:11:12.451Z,6.75
2023-01-01T03:13:46.903Z,6.71
2023-01-01T03:16:19.215Z,6.61
2023-01-01T03:19:11.141Z,6.53
2023-01-01T03:21:44.147Z,6.48
2023-01-01T03:24:16.029Z,6.45
2023-01-01T03:26:44.358Z,6.45
2023-01-01T03:29:14.214Z,6.46
2023-01-01T03:31:46.181Z,6.46
2023-01-01T03:34:19.069Z,6.48
2023-01-01T03:36:50.005Z,6.46
2023-01-01T03:39:21.135Z,6.44
2023-01-01T03:41:51.382Z,6.43
2023-01-01T03:44:23.068Z,6.41
2023-01-01T03:46:52.352Z,6.42
2023-01-01T03:49:20.841Z,6.41
2023-01-01T03:52:17.143Z,6.38
2023-01-01T03:54:47.563Z,6.41
2023-01-01T03:57:24.321Z,6.43
2023-01-01T03:59:57.848Z,6.44
2023-01-01T04:02:30.266Z,6.46
2023-01-01T04:04:59.345Z,6.47
2023-01-01T04:07:27.397Z,6.45
2023-01-01T04:09:57.325Z,6.42
2023-01-01T04:12:25.301Z,6.44
2023-01-01T04:14:53.239Z,6.46
2023-01-01T04:17:21.078Z,6.47
2023-01-01T04:19:54.995Z,6.45
2023-01-01T04:22:23.728Z,6.41
2023-01-01T04:24:51.758Z,6.41
2023-01-01T04:27:19.556Z,6.41
2023-01-01T04:29:47.308Z,6.42
2023-01-01T04:32:15.179Z,6.44
2023-01-01T04:34:42.964Z,6.43
2023-01-01T04:37:13.577Z,6.44
2023-01-01T04:39:41.769Z,6.44
2023-01-01T04:42:09.665Z,6.44
2023-01-01T04:44:37.503Z,6.45
2023-01-01T04:47:05.618Z,6.44
2023-01-01T04:49:33.431Z,6.43
2023-01-01T04:52:01.437Z,6.40
2023-01-01T04:54:30.766Z,6.37
2023-01-01T04:56:58.655Z,6.35
2023-01-01T04:59:26.528Z,6.35
2023-01-01T05:01:54.656Z,6.34
2023-01-01T05:04:22.612Z,6.34
2023-01-01T05:06:50.736Z,6.32
2023-01-01T05:09:18.541Z,6.25
2023-01-01T05:11:47.879Z,6.24
2023-01-01T05:14:15.647Z,6.22
2023-01-01T05:16:43.698Z,6.17
2023-01-01T05:19:11.878Z,6.15
2023-01-01T05:21:41.671Z,6.10
2023-01-01T05:24:11.022Z,6.07
2023-01-01T05:26:40.201Z,6.01
2023-01-01T05:29:16.183Z,5.99
2023-01-01T05:31:45.633Z,5.97
2023-01-01T05:34:13.709Z,5.92
2023-01-01T05:36:41.660Z,5.85
2023-01-01T05:39:12.006Z,5.85
2023-01-01T05:41:40.559Z,5.87
2023-01-01T05:44:11.744Z,5.89
2023-01-01T05:46:39.798Z,5.86
2023-01-01T05:49:07.878Z,5.86
2023-01-01T05:54:02.563Z,5.87
2023-01-01T05:56:30.408Z,5.86
2023-01-01T05:58:58.508Z,5.86
2023-01-01T06:01:29.548Z,5.86
2023-01-01T06:03:58.485Z,5.91
2023-01-01T06:06:28.913Z,5.92
2023-01-01T06:08:58.873Z,5.93
2023-01-01T06:11:27.439Z,5.91
2023-01-01T06:13:56.173Z,5.89
2023-01-01T06:16:24.437Z,5.90
2023-01-01T06:18:53.715Z,5.88
2023-01-01T06:21:22.974Z,5.88
2023-01-01T06:23:50.931Z,5.92
2023-01-01T06:26:20.917Z,5.89
2023-01-01T06:28:49.192Z,5.87
2023-01-01T06:31:19.484Z,5.86
2023-01-01T06:33:47.533Z,5.83
2023-01-01T06:36:19.383Z,5.75
2023-01-01T06:38:48.841Z,5.74
2023-01-01T06:41:18.695Z,5.71
2023-01-01T06:43:47.246Z,5.72
2023-01-01T06:46:18.738Z,5.69
2023-01-01T06:48:47.861Z,5.70
2023-01-01T06:51:19.427Z,5.65
2023-01-01T06:53:47.652Z,5.60
2023-01-01T06:56:15.620Z,5.61
2023-01-01T06:58:43.591Z,5.64
2023-01-01T07:01:13.690Z,5.65
2023-01-01T07:03:42.667Z,5.66
2023-01-01T07:06:11.237Z,5.67
2023-01-01T07:08:40.600Z,5.73
2023-01-01T07:11:08.421Z,5.77
2023-01-01T07:13:36.623Z,5.85
2023-01-01T07:16:12.346Z,5.90
2023-01-01T07:18:41.521Z,5.91
2023-01-01T07:21:34.006Z,5.87
2023-01-01T07:24:03.719Z,5.86
2023-01-01T07:26:33.163Z,5.82
2023-01-01T07:29:07.979Z,5.83
2023-01-01T07:31:36.738Z,5.82
2023-01-01T07:34:04.761Z,5.80
2023-01-01T07:36:32.661Z,5.79
2023-01-01T07:39:00.712Z,5.84
2023-01-01T07:41:30.007Z,5.86
2023-01-01T07:43:57.785Z,5.89
2023-01-01T07:46:25.687Z,5.94
2023-01-01T07:48:53.660Z,5.96
2023-01-01T07:51:21.413Z,5.99
2023-01-01T07:53:49.217Z,6.03
2023-01-01T07:56:17.105Z,6.09
2023-01-01T07:58:46.415Z,6.15
2023-01-01T08:01:15.727Z,6.21
2023-01-01T08:03:43.873Z,6.32
2023-01-01T08:06:12.664Z,6.38
2023-01-01T08:08:40.784Z,6.48
2023-01-01T08:11:08.649Z,6.64
2023-01-01T08:13:36.519Z,6.79
2023-01-01T08:16:06.606Z,6.90
2023-01-01T08:18:34.389Z,6.97
2023-01-01T08:21:02.173Z,7.08
2023-01-01T08:23:30.037Z,7.13
2023-01-01T08:26:00.116Z,7.22
2023-01-01T08:28:28.278Z,7.28
2023-01-01T08:30:56.222Z,7.42
2023-01-01T08:33:26.221Z,7.61
2023-01-01T08:35:54.907Z,7.70
2023-01-01T08:38:22.923Z,7.73
2023-01-01T08:40:50.860Z,7.75
2023-01-01T08:43:18.682Z,7.83
2023-01-01T08:45:46.707Z,7.96
2023-01-01T08:48:14.726Z,8.08
2023-01-01T08:50:44.014Z,8.19
2023-01-01T08:53:11.916Z,8.27
2023-01-01T08:55:39.746Z,8.36
2023-01-01T08:58:08.367Z,8.56
2023-01-01T09:00:36.332Z,8.67
2023-01-01T09:03:04.226Z,8.80
2023-01-01T09:05:32.321Z,8.97
2023-01-01T09:08:01.643Z,9.06
2023-01-01T09:10:29.514Z,9.21
2023-01-01T09:12:57.283Z,9.34
2023-01-01T09:15:25.285Z,9.45
2023-01-01T09:17:53.178Z,9.58
2023-01-01T09:20:21.140Z,9.73
2023-01-01T09:22:48.995Z,9.80
2023-01-01T09:25:18.531Z,9.79
2023-01-01T09:27:46.538Z,9.76
2023-01-01T09:30:15.984Z,9.64
2023-01-01T09:32:43.843Z,9.67
2023-01-01T09:35:11.644Z,9.71
2023-01-01T09:37:39.475Z,9.79
2023-01-01T09:40:08.781Z,9.92
2023-01-01T09:42:41.050Z,10.09
2023-01-01T09:45:22.992Z,10.28
2023-01-01T09:47:53.484Z,10.41
2023-01-01T09:54:09.250Z,10.68
2023-01-01T09:56:37.544Z,10.85
2023-01-01T09:59:10.199Z,11.04
2023-01-01T10:01:45.165Z,11.23
2023-01-01T10:04:32.304Z,11.44
2023-01-01T10:07:28.342Z,11.60
2023-01-01T10:11:06.016Z,11.74
2023-01-01T10:13:36.131Z,11.85
2023-01-01T10:16:11.694Z,11.93
2023-01-01T10:18:40.081Z,12.05
2023-01-01T10:21:11.427Z,12.17
2023-01-01T10:23:43.256Z,12.31
2023-01-01T10:26:14.581Z,12.43
2023-01-01T10:28:48.536Z,12.57
2023-01-01T10:31:20.270Z,12.68
2023-01-01T10:33:48.665Z,12.81
2023-01-01T10:36:18.379Z,12.95
2023-01-01T10:38:46.596Z,13.10
2023-01-01T10:41:19.530Z,13.21
2023-01-01T10:43:48.199Z,13.37
2023-01-01T10:46:20.276Z,13.51
2023-01-01T10:49:06.916Z,13.71
2023-01-01T10:51:36.830Z,13.88
2023-01-01T10:54:04.912Z,14.01
2023-01-01T10:56:41.346Z,14.13
2023-01-01T10:59:34.656Z,14.23
2023-01-01T11:02:23.001Z,14.31
2023-01-01T11:04:52.562Z,14.44
2023-01-01T11:07:29.067Z,14.50
2023-01-01T11:10:04.030Z,14.56
2023-01-01T11:15:25.306Z,14.57
2023-01-01T11:18:06.826Z,14.55
2023-01-01T11:20:35.255Z,14.56
2023-01-01T11:23:20.264Z,14.42
2023-01-01T11:26:02.848Z,14.48
2023-01-01T11:28:53.140Z,14.47
2023-01-01T11:31:34.357Z,14.61
2023-01-01T11:34:08.015Z,14.76
2023-01-01T11:36:36.359Z,14.92
2023-01-01T11:39:23.111Z,15.08
2023-01-01T11:41:52.770Z,15.21
2023-01-01T11:44:28.428Z,15.37
2023-01-01T11:46:56.210Z,15.52
2023-01-01T11:49:27.958Z,15.72
2023-01-01T11:51:55.725Z,15.90
2023-01-01T11:54:32.803Z,16.05
2023-01-01T11:57:05.446Z,16.22
2023-01-01T11:59:42.165Z,16.29
2023-01-01T12:02:14.155Z,16.29
2023-01-01T12:04:46.834Z,16.33
2023-01-01T12:07:17.995Z,16.31
2023-01-01T12:09:51.025Z,16.28
2023-01-01T12:12:23.467Z,16.35
2023-01-01T12:14:54.842Z,16.29
2023-01-01T12:17:25.329Z,16.40
2023-01-01T12:19:59.742Z,16.43
2023-01-01T12:22:28.230Z,16.43
2023-01-01T12:24:56.247Z,16.53
2023-01-01T12:27:35.443Z,16.66
2023-01-01T12:30:12.432Z,16.80
2023-01-01T12:33:09.081Z,16.82
2023-01-01T12:35:52.507Z,16.85
2023-01-01T12:38:35.486Z,16.94
2023-01-01T12:41:09.382Z,17.02
2023-01-01T12:43:44.284Z,17.06
2023-01-01T12:46:29.416Z,17.12
2023-01-01T12:49:14.721Z,17.21
2023-01-01T12:51:49.270Z,17.33
2023-01-01T12:54:44.141Z,17.30
2023-01-01T12:57:15.926Z,17.30
2023-01-01T12:59:46.961Z,17.33
2023-01-01T13:02:18.281Z,17.38
2023-01-01T13:04:46.556Z,17.43
2023-01-01T13:07:16.082Z,17.52
2023-01-01T13:09:48.319Z,17.49
2023-01-01T13:12:18.900Z,17.46
2023-01-01T13:14:49.538Z,17.39
2023-01-01T13:17:20.300Z,17.34
2023-01-01T13:19:49.920Z,17.30
2023-01-01T13:22:42.291Z,17.22
2023-01-01T13:25:22.404Z,17.13
2023-01-01T13:28:12.176Z,17.09
2023-01-01T13:30:54.736Z,17.14
2023-01-01T13:33:29.587Z,17.07
2023-01-01T13:36:31.601Z,16.98
2023-01-01T13:39:01.831Z,16.94
2023-01-01T13:41:36.805Z,17.00
2023-01-01T13:44:19.101Z,16.99
2023-01-01T13:46:53.249Z,16.92
2023-01-01T13:49:26.297Z,16.82
2023-01-01T13:52:20.989Z,16.89
2023-01-01T13:55:06.165Z,16.98
2023-01-01T13:57:50.539Z,17.03
2023-01-01T14:00:22.317Z,17.01
2023-01-01T14:52:40.700Z,15.55
2023-01-01T14:55:09.422Z,15.31
2023-01-01T14:57:38.410Z,15.06
2023-01-01T15:00:16.106Z,14.87
2023-01-01T15:02:43.829Z,14.63
2023-01-01T15:05:34.701Z,14.54
2023-01-01T15:08:06.172Z,14.53
2023-01-01T15:10:36.166Z,14.64
2023-01-01T15:13:07.253Z,14.64
2023-01-01T15:15:40.944Z,14.70
2023-01-01T15:18:41.886Z,14.61
2023-01-01T15:21:14.920Z,14.63
2023-01-01T15:23:54.082Z,14.67
2023-01-01T15:26:51.460Z,14.69
2023-01-01T15:29:25.563Z,14.68
2023-01-01T15:31:57.178Z,14.49
2023-01-01T15:34:27.699Z,14.24
2023-01-01T15:36:56.950Z,14.21
2023-01-01T15:39:33.774Z,14.23
2023-01-01T15:42:01.438Z,14.21
2023-01-01T15:44:30.908Z,14.13
2023-01-01T15:47:06.717Z,13.94
2023-01-01T15:49:34.655Z,13.75
2023-01-01T15:52:05.473Z,13.51
2023-01-01T15:54:37.442Z,13.25
2023-01-01T15:57:05.177Z,12.65
2023-01-01T15:59:34.913Z,12.66
2023-01-01T16:02:11.905Z,12.65
2023-01-01T16:04:40.167Z,12.54
2023-01-01T16:07:16.325Z,12.34
2023-01-01T16:09:45.446Z,12.30
2023-01-01T16:12:13.058Z,12.31
2023-01-01T16:14:40.683Z,12.23
2023-01-01T16:17:13.846Z,12.19
2023-01-01T16:19:41.751Z,12.11
2023-01-01T16:22:13.702Z,12.05
2023-01-01T16:24:41.449Z,11.83
2023-01-01T16:27:10.604Z,11.75
2023-01-01T16:29:40.295Z,11.70
2023-01-01T16:32:16.817Z,11.70
2023-01-01T16:34:44.451Z,11.63
2023-01-01T16:37:12.053Z,11.61
2023-01-01T16:39:39.702Z,11.63
2023-01-01T16:42:09.454Z,11.53
2023-01-01T16:44:41.815Z,11.50
2023-01-01T16:47:09.599Z,11.46
2023-01-01T16:49:37.262Z,11.45
2023-01-01T16:52:05.052Z,11.43
2023-01-01T16:54:32.698Z,11.30
2023-01-01T16:57:00.303Z,11.18
2023-01-01T16:59:27.884Z,11.14
2023-01-01T17:01:57.080Z,11.19
2023-01-01T17:04:24.983Z,11.23
2023-01-01T17:06:52.615Z,11.27
2023-01-01T17:09:20.331Z,11.26
2023-01-01T17:11:47.989Z,11.19
2023-01-01T17:14:15.673Z,11.08
2023-01-01T17:16:43.328Z,11.00
2023-01-01T17:19:15.125Z,10.92
2023-01-01T17:21:44.712Z,10.91
2023-01-01T17:24:12.570Z,10.92
2023-01-01T17:26:40.262Z,10.99
2023-01-01T17:29:07.942Z,11.01
2023-01-01T17:31:36.095Z,11.02
2023-01-01T17:34:04.177Z,11.04
2023-01-01T17:36:34.397Z,11.05
2023-01-01T17:39:05.098Z,11.09
2023-01-01T17:41:35.877Z,11.15
2023-01-01T17:44:05.216Z,11.06
2023-01-01T17:46:33.933Z,11.04
2023-01-01T17:49:03.167Z,11.10
2023-01-01T17:51:32.791Z,11.14
2023-01-01T17:54:03.365Z,11.11
2023-01-01T17:56:31.019Z,11.10
2023-01-01T17:58:58.804Z,11.03
2023-01-01T18:01:30.847Z,10.97
2023-01-01T18:03:59.795Z,10.92
2023-01-01T18:06:28.697Z,10.88
2023-01-01T18:08:57.002Z,10.83
2023-01-01T18:11:28.712Z,10.70
2023-01-01T18:13:56.731Z,10.63
2023-01-01T18:16:24.810Z,10.50
2023-01-01T18:18:53.165Z,10.41
2023-01-01T18:21:23.743Z,10.31
2023-01-01T18:23:52.946Z,10.12
2023-01-01T18:26:21.131Z,9.99
2023-01-01T18:28:53.515Z,9.91
2023-01-01T18:31:21.738Z,9.81
2023-01-01T18:33:50.258Z,9.80
2023-01-01T18:36:20.652Z,9.75
2023-01-01T18:38:57.509Z,9.67
2023-01-01T18:41:58.263Z,9.61
2023-01-01T18:44:30.826Z,9.58
2023-01-01T18:47:02.405Z,9.55
2023-01-01T18:49:30.917Z,9.53
2023-01-01T18:52:02.867Z,9.68
2023-01-01T18:54:59.991Z,9.97
2023-01-01T21:05:13.013Z,8.07
2023-01-01T21:07:40.775Z,8.05
2023-01-01T21:10:09.631Z,7.90
2023-01-01T21:12:37.672Z,7.81
2023-01-01T21:15:13.145Z,7.77
2023-01-01T21:17:41.009Z,7.74
2023-01-01T21:20:10.275Z,7.62
2023-01-01T21:22:38.101Z,7.59
2023-01-01T21:25:49.297Z,7.61
2023-01-01T21:28:02.919Z,7.59
2023-01-01T21:30:32.201Z,7.50
2023-01-01T21:33:00.170Z,7.48
2023-01-01T21:35:33.157Z,7.45
2023-01-01T21:38:01.718Z,7.41
2023-01-01T21:40:36.324Z,7.35
2023-01-01T21:43:29.981Z,7.30
2023-01-01T21:46:04.008Z,7.20
2023-01-01T21:48:33.656Z,7.09
2023-01-01T21:51:01.961Z,7.08
2023-01-01T21:53:31.200Z,7.10
2023-01-01T21:55:58.922Z,7.08
2023-01-01T21:58:45.567Z,6.79
2023-01-01T22:01:25.910Z,6.72
2023-01-01T22:03:59.860Z,6.74
2023-01-01T22:06:34.502Z,6.75
2023-01-01T22:09:02.502Z,6.74
2023-01-01T22:11:30.842Z,6.72
2023-01-01T22:13:58.422Z,6.78
2023-01-01T22:16:30.310Z,6.78
2023-01-01T22:18:59.080Z,6.81
2023-01-01T22:21:29.821Z,6.76
2023-01-01T22:24:01.583Z,6.72
2023-01-01T22:26:35.390Z,6.70
2023-01-01T22:29:08.350Z,6.66
2023-01-01T22:31:48.938Z,6.63
2023-01-01T22:34:22.174Z,6.57
2023-01-01T22:36:55.718Z,6.53
2023-01-01T22:39:28.824Z,6.53
2023-01-01T22:41:58.020Z,6.49
